sensor_id;sensor_type;location;lat;lon;timestamp;P1;durP1;ratioP1;P2;durP2;ratioP2
55314;SDS011;41619;42.816;23.226;2023-04-08T00:00:19;56.17;;;31.17;;
55314;SDS011;41619;42.816;23.226;2023-04-08T00:02:45;56.20;;;30.70;;
55314;SDS011;41619;42.816;23.226;2023-04-08T00:05:10;56.70;;;29.90;;
55314;SDS011;41619;42.816;23.226;2023-04-08T00:07:36;55.63;;;28.35;;
55314;SDS011;41619;42.816;23.226;2023-04-08T00:10:01;52.92;;;28.65;;
55314;SDS011;41619;42.816;23.226;2023-04-08T00:12:27;51.05;;;29.20;;
55314;SDS011;41619;42.816;23.226;2023-04-08T00:14:52;51.97;;;28.48;;
55314;SDS011;41619;42.816;23.226;2023-04-08T00:17:18;53.33;;;27.65;;
55314;SDS011;41619;42.816;23.226;2023-04-08T00:19:43;60.55;;;30.63;;
55314;SDS011;41619;42.816;23.226;2023-04-08T00:22:09;94.75;;;37.53;;
55314;SDS011;41619;42.816;23.226;2023-04-08T00:24:35;66.78;;;31.80;;
55314;SDS011;41619;42.816;23.226;2023-04-08T00:27:00;46.22;;;27.48;;
55314;SDS011;41619;42.816;23.226;2023-04-08T00:29:26;44.15;;;26.83;;
55314;SDS011;41619;42.816;23.226;2023-04-08T00:31:52;47.40;;;25.42;;
55314;SDS011;41619;42.816;23.226;2023-04-08T00:34:18;39.45;;;25.15;;
55314;SDS011;41619;42.816;23.226;2023-04-08T00:36:43;41.20;;;25.20;;
55314;SDS011;41619;42.816;23.226;2023-04-08T00:39:10;39.92;;;25.08;;
55314;SDS011;41619;42.816;23.226;2023-04-08T00:41:35;39.45;;;24.05;;
55314;SDS011;41619;42.816;23.226;2023-04-08T00:44:01;43.13;;;24.05;;
55314;SDS011;41619;42.816;23.226;2023-04-08T00:46:26;39.28;;;23.85;;
55314;SDS011;41619;42.816;23.226;2023-04-08T00:48:53;38.95;;;23.90;;
55314;SDS011;41619;42.816;23.226;2023-04-08T00:51:19;44.95;;;25.95;;
55314;SDS011;41619;42.816;23.226;2023-04-08T00:53:44;45.05;;;26.05;;
55314;SDS011;41619;42.816;23.226;2023-04-08T00:56:10;44.95;;;27.75;;
55314;SDS011;41619;42.816;23.226;2023-04-08T00:58:35;52.50;;;30.15;;
55314;SDS011;41619;42.816;23.226;2023-04-08T01:01:05;51.17;;;31.52;;
55314;SDS011;41619;42.816;23.226;2023-04-08T01:03:43;56.47;;;31.00;;
55314;SDS011;41619;42.816;23.226;2023-04-08T01:06:43;50.90;;;30.88;;
55314;SDS011;41619;42.816;23.226;2023-04-08T01:09:18;54.50;;;31.25;;
55314;SDS011;41619;42.816;23.226;2023-04-08T01:11:48;82.03;;;39.88;;
55314;SDS011;41619;42.816;23.226;2023-04-08T01:14:16;66.40;;;36.77;;
55314;SDS011;41619;42.816;23.226;2023-04-08T01:16:46;61.22;;;34.13;;
55314;SDS011;41619;42.816;23.226;2023-04-08T01:19:16;59.42;;;32.95;;
55314;SDS011;41619;42.816;23.226;2023-04-08T01:21:48;56.28;;;31.80;;
55314;SDS011;41619;42.816;23.226;2023-04-08T01:24:17;64.68;;;33.47;;
55314;SDS011;41619;42.816;23.226;2023-04-08T01:26:54;60.07;;;32.23;;
55314;SDS011;41619;42.816;23.226;2023-04-08T01:29:21;57.53;;;32.55;;
55314;SDS011;41619;42.816;23.226;2023-04-08T01:31:48;58.33;;;33.67;;
55314;SDS011;41619;42.816;23.226;2023-04-08T01:34:14;57.92;;;34.63;;
55314;SDS011;41619;42.816;23.226;2023-04-08T01:36:43;56.85;;;32.78;;
55314;SDS011;41619;42.816;23.226;2023-04-08T01:39:09;59.30;;;34.63;;
55314;SDS011;41619;42.816;23.226;2023-04-08T01:41:36;54.67;;;33.78;;
55314;SDS011;41619;42.816;23.226;2023-04-08T01:44:02;54.92;;;32.65;;
55314;SDS011;41619;42.816;23.226;2023-04-08T01:46:29;56.00;;;33.22;;
55314;SDS011;41619;42.816;23.226;2023-04-08T01:48:56;54.95;;;32.90;;
55314;SDS011;41619;42.816;23.226;2023-04-08T01:51:23;55.35;;;33.35;;
55314;SDS011;41619;42.816;23.226;2023-04-08T01:53:51;55.28;;;33.35;;
55314;SDS011;41619;42.816;23.226;2023-04-08T01:56:16;54.50;;;32.03;;
55314;SDS011;41619;42.816;23.226;2023-04-08T01:58:49;55.25;;;33.45;;
55314;SDS011;41619;42.816;23.226;2023-04-08T02:01:19;58.05;;;34.78;;
55314;SDS011;41619;42.816;23.226;2023-04-08T02:03:46;66.97;;;36.08;;
55314;SDS011;41619;42.816;23.226;2023-04-08T02:06:16;62.40;;;34.67;;
55314;SDS011;41619;42.816;23.226;2023-04-08T02:08:41;58.28;;;35.78;;
55314;SDS011;41619;42.816;23.226;2023-04-08T02:11:07;60.83;;;37.15;;
55314;SDS011;41619;42.816;23.226;2023-04-08T02:13:32;65.05;;;37.42;;
55314;SDS011;41619;42.816;23.226;2023-04-08T02:16:14;67.03;;;35.90;;
55314;SDS011;41619;42.816;23.226;2023-04-08T02:18:44;63.78;;;34.70;;
55314;SDS011;41619;42.816;23.226;2023-04-08T02:21:16;87.60;;;45.53;;
55314;SDS011;41619;42.816;23.226;2023-04-08T02:23:45;79.45;;;45.33;;
55314;SDS011;41619;42.816;23.226;2023-04-08T02:26:14;68.40;;;40.90;;
55314;SDS011;41619;42.816;23.226;2023-04-08T02:28:41;69.60;;;39.17;;
55314;SDS011;41619;42.816;23.226;2023-04-08T02:31:10;60.70;;;37.40;;
55314;SDS011;41619;42.816;23.226;2023-04-08T02:33:37;61.83;;;37.55;;
55314;SDS011;41619;42.816;23.226;2023-04-08T02:36:03;62.00;;;36.63;;
55314;SDS011;41619;42.816;23.226;2023-04-08T02:38:30;63.20;;;35.28;;
55314;SDS011;41619;42.816;23.226;2023-04-08T02:40:56;54.72;;;32.92;;
55314;SDS011;41619;42.816;23.226;2023-04-08T02:43:22;58.13;;;34.85;;
55314;SDS011;41619;42.816;23.226;2023-04-08T02:45:55;57.30;;;34.50;;
55314;SDS011;41619;42.816;23.226;2023-04-08T02:48:21;60.17;;;34.53;;
55314;SDS011;41619;42.816;23.226;2023-04-08T02:50:47;56.28;;;33.58;;
55314;SDS011;41619;42.816;23.226;2023-04-08T02:53:12;60.97;;;34.42;;
55314;SDS011;41619;42.816;23.226;2023-04-08T02:55:37;61.33;;;33.20;;
55314;SDS011;41619;42.816;23.226;2023-04-08T02:58:04;56.42;;;32.05;;
55314;SDS011;41619;42.816;23.226;2023-04-08T03:00:29;56.58;;;32.65;;
55314;SDS011;41619;42.816;23.226;2023-04-08T03:02:55;56.85;;;31.42;;
55314;SDS011;41619;42.816;23.226;2023-04-08T03:05:20;45.70;;;30.05;;
55314;SDS011;41619;42.816;23.226;2023-04-08T03:07:46;46.97;;;29.98;;
55314;SDS011;41619;42.816;23.226;2023-04-08T03:10:11;46.30;;;30.60;;
55314;SDS011;41619;42.816;23.226;2023-04-08T03:12:37;52.42;;;30.83;;
55314;SDS011;41619;42.816;23.226;2023-04-08T03:15:02;52.00;;;30.63;;
55314;SDS011;41619;42.816;23.226;2023-04-08T03:17:28;53.60;;;31.30;;
55314;SDS011;41619;42.816;23.226;2023-04-08T03:19:56;51.70;;;30.33;;
55314;SDS011;41619;42.816;23.226;2023-04-08T03:22:22;53.25;;;31.92;;
55314;SDS011;41619;42.816;23.226;2023-04-08T03:24:48;52.78;;;32.35;;
55314;SDS011;41619;42.816;23.226;2023-04-08T03:27:13;57.90;;;31.48;;
55314;SDS011;41619;42.816;23.226;2023-04-08T03:29:39;51.58;;;31.33;;
55314;SDS011;41619;42.816;23.226;2023-04-08T03:32:05;50.78;;;32.08;;
55314;SDS011;41619;42.816;23.226;2023-04-08T03:34:30;59.25;;;33.95;;
55314;SDS011;41619;42.816;23.226;2023-04-08T03:36:58;54.80;;;30.98;;
55314;SDS011;41619;42.816;23.226;2023-04-08T03:39:23;45.55;;;29.33;;
55314;SDS011;41619;42.816;23.226;2023-04-08T03:41:49;51.97;;;32.53;;
55314;SDS011;41619;42.816;23.226;2023-04-08T03:44:14;47.08;;;30.98;;
55314;SDS011;41619;42.816;23.226;2023-04-08T03:46:40;44.35;;;28.92;;
55314;SDS011;41619;42.816;23.226;2023-04-08T03:49:05;46.10;;;28.48;;
55314;SDS011;41619;42.816;23.226;2023-04-08T03:51:31;47.08;;;30.45;;
55314;SDS011;41619;42.816;23.226;2023-04-08T03:53:56;47.35;;;28.73;;
55314;SDS011;41619;42.816;23.226;2023-04-08T03:56:22;48.53;;;30.20;;
55314;SDS011;41619;42.816;23.226;2023-04-08T03:58:47;45.60;;;29.58;;
55314;SDS011;41619;42.816;23.226;2023-04-08T04:01:12;48.17;;;29.45;;
55314;SDS011;41619;42.816;23.226;2023-04-08T04:03:38;51.70;;;30.13;;
55314;SDS011;41619;42.816;23.226;2023-04-08T04:06:03;48.83;;;29.30;;
55314;SDS011;41619;42.816;23.226;2023-04-08T04:08:29;50.60;;;30.42;;
55314;SDS011;41619;42.816;23.226;2023-04-08T04:10:54;56.15;;;33.30;;
55314;SDS011;41619;42.816;23.226;2023-04-08T04:13:19;56.53;;;32.08;;
55314;SDS011;41619;42.816;23.226;2023-04-08T04:15:45;55.55;;;33.33;;
55314;SDS011;41619;42.816;23.226;2023-04-08T04:18:11;63.55;;;36.90;;
55314;SDS011;41619;42.816;23.226;2023-04-08T04:20:42;67.32;;;37.45;;
55314;SDS011;41619;42.816;23.226;2023-04-08T04:23:08;73.45;;;39.40;;
55314;SDS011;41619;42.816;23.226;2023-04-08T04:25:34;64.72;;;35.90;;
55314;SDS011;41619;42.816;23.226;2023-04-08T04:27:59;52.78;;;33.17;;
55314;SDS011;41619;42.816;23.226;2023-04-08T04:30:25;63.22;;;32.20;;
55314;SDS011;41619;42.816;23.226;2023-04-08T04:32:51;53.67;;;32.85;;
55314;SDS011;41619;42.816;23.226;2023-04-08T04:35:17;50.72;;;32.38;;
55314;SDS011;41619;42.816;23.226;2023-04-08T04:37:42;49.55;;;31.48;;
55314;SDS011;41619;42.816;23.226;2023-04-08T04:40:08;47.92;;;29.35;;
55314;SDS011;41619;42.816;23.226;2023-04-08T04:42:33;51.80;;;30.38;;
55314;SDS011;41619;42.816;23.226;2023-04-08T04:44:58;50.35;;;29.20;;
55314;SDS011;41619;42.816;23.226;2023-04-08T04:47:24;51.20;;;32.30;;
55314;SDS011;41619;42.816;23.226;2023-04-08T04:49:50;54.35;;;30.20;;
55314;SDS011;41619;42.816;23.226;2023-04-08T04:52:15;52.47;;;31.20;;
55314;SDS011;41619;42.816;23.226;2023-04-08T04:54:41;55.55;;;32.35;;
55314;SDS011;41619;42.816;23.226;2023-04-08T04:57:06;60.72;;;32.20;;
55314;SDS011;41619;42.816;23.226;2023-04-08T04:59:31;46.95;;;31.83;;
55314;SDS011;41619;42.816;23.226;2023-04-08T05:01:57;54.33;;;33.65;;
55314;SDS011;41619;42.816;23.226;2023-04-08T05:04:22;52.47;;;32.35;;
55314;SDS011;41619;42.816;23.226;2023-04-08T05:06:49;63.35;;;34.10;;
55314;SDS011;41619;42.816;23.226;2023-04-08T05:09:14;63.10;;;35.95;;
55314;SDS011;41619;42.816;23.226;2023-04-08T05:11:39;83.95;;;43.38;;
55314;SDS011;41619;42.816;23.226;2023-04-08T05:14:05;102.38;;;56.00;;
55314;SDS011;41619;42.816;23.226;2023-04-08T05:16:31;81.82;;;47.08;;
55314;SDS011;41619;42.816;23.226;2023-04-08T05:18:57;90.28;;;52.28;;
55314;SDS011;41619;42.816;23.226;2023-04-08T05:21:22;122.50;;;62.35;;
55314;SDS011;41619;42.816;23.226;2023-04-08T05:23:48;114.15;;;60.05;;
55314;SDS011;41619;42.816;23.226;2023-04-08T05:26:14;85.85;;;45.95;;
55314;SDS011;41619;42.816;23.226;2023-04-08T05:28:40;71.25;;;41.80;;
55314;SDS011;41619;42.816;23.226;2023-04-08T05:31:05;78.63;;;40.95;;
55314;SDS011;41619;42.816;23.226;2023-04-08T05:33:31;80.30;;;43.28;;
55314;SDS011;41619;42.816;23.226;2023-04-08T05:35:56;65.15;;;38.05;;
55314;SDS011;41619;42.816;23.226;2023-04-08T05:38:22;66.45;;;38.30;;
55314;SDS011;41619;42.816;23.226;2023-04-08T05:40:47;74.32;;;41.65;;
55314;SDS011;41619;42.816;23.226;2023-04-08T05:43:12;63.10;;;37.65;;
55314;SDS011;41619;42.816;23.226;2023-04-08T05:45:38;64.45;;;34.97;;
55314;SDS011;41619;42.816;23.226;2023-04-08T05:48:03;58.13;;;32.88;;
55314;SDS011;41619;42.816;23.226;2023-04-08T05:50:29;53.47;;;31.05;;
55314;SDS011;41619;42.816;23.226;2023-04-08T05:52:54;48.00;;;30.08;;
55314;SDS011;41619;42.816;23.226;2023-04-08T05:55:19;56.95;;;34.08;;
55314;SDS011;41619;42.816;23.226;2023-04-08T05:57:45;53.83;;;29.75;;
55314;SDS011;41619;42.816;23.226;2023-04-08T06:00:10;50.30;;;27.40;;
55314;SDS011;41619;42.816;23.226;2023-04-08T06:02:36;42.97;;;25.70;;
55314;SDS011;41619;42.816;23.226;2023-04-08T06:05:02;41.38;;;25.15;;
55314;SDS011;41619;42.816;23.226;2023-04-08T06:07:28;44.72;;;27.40;;
55314;SDS011;41619;42.816;23.226;2023-04-08T06:09:53;43.78;;;26.17;;
55314;SDS011;41619;42.816;23.226;2023-04-08T06:12:19;47.28;;;26.15;;
55314;SDS011;41619;42.816;23.226;2023-04-08T06:14:45;37.50;;;24.17;;
55314;SDS011;41619;42.816;23.226;2023-04-08T06:17:10;46.92;;;25.48;;
55314;SDS011;41619;42.816;23.226;2023-04-08T06:19:36;37.65;;;24.38;;
55314;SDS011;41619;42.816;23.226;2023-04-08T06:22:01;36.50;;;24.13;;
55314;SDS011;41619;42.816;23.226;2023-04-08T06:24:27;42.33;;;24.05;;
55314;SDS011;41619;42.816;23.226;2023-04-08T06:26:53;34.83;;;22.17;;
55314;SDS011;41619;42.816;23.226;2023-04-08T06:29:19;42.35;;;24.38;;
55314;SDS011;41619;42.816;23.226;2023-04-08T06:31:45;39.05;;;23.58;;
55314;SDS011;41619;42.816;23.226;2023-04-08T06:34:11;37.45;;;24.75;;
55314;SDS011;41619;42.816;23.226;2023-04-08T06:36:36;48.58;;;27.60;;
55314;SDS011;41619;42.816;23.226;2023-04-08T06:39:02;41.35;;;26.50;;
55314;SDS011;41619;42.816;23.226;2023-04-08T06:41:28;40.58;;;24.08;;
55314;SDS011;41619;42.816;23.226;2023-04-08T06:43:54;45.50;;;26.90;;
55314;SDS011;41619;42.816;23.226;2023-04-08T06:46:19;37.17;;;21.73;;
55314;SDS011;41619;42.816;23.226;2023-04-08T06:48:45;35.60;;;22.02;;
55314;SDS011;41619;42.816;23.226;2023-04-08T06:51:11;39.58;;;25.05;;
55314;SDS011;41619;42.816;23.226;2023-04-08T06:53:36;39.97;;;23.48;;
55314;SDS011;41619;42.816;23.226;2023-04-08T06:56:02;37.53;;;23.38;;
55314;SDS011;41619;42.816;23.226;2023-04-08T06:58:27;36.15;;;22.67;;
55314;SDS011;41619;42.816;23.226;2023-04-08T07:00:53;32.40;;;21.77;;
55314;SDS011;41619;42.816;23.226;2023-04-08T07:03:22;43.60;;;22.60;;
55314;SDS011;41619;42.816;23.226;2023-04-08T07:05:47;34.88;;;22.80;;
55314;SDS011;41619;42.816;23.226;2023-04-08T07:08:13;36.70;;;23.00;;
55314;SDS011;41619;42.816;23.226;2023-04-08T07:10:38;32.20;;;21.55;;
55314;SDS011;41619;42.816;23.226;2023-04-08T07:13:04;34.60;;;23.23;;
55314;SDS011;41619;42.816;23.226;2023-04-08T07:15:30;33.33;;;21.75;;
55314;SDS011;41619;42.816;23.226;2023-04-08T07:17:55;31.00;;;21.02;;
55314;SDS011;41619;42.816;23.226;2023-04-08T07:20:21;56.30;;;33.00;;
55314;SDS011;41619;42.816;23.226;2023-04-08T07:22:47;37.20;;;26.13;;
55314;SDS011;41619;42.816;23.226;2023-04-08T07:25:13;38.58;;;23.45;;
55314;SDS011;41619;42.816;23.226;2023-04-08T07:27:38;34.03;;;21.50;;
55314;SDS011;41619;42.816;23.226;2023-04-08T07:30:04;29.45;;;19.73;;
55314;SDS011;41619;42.816;23.226;2023-04-08T07:32:31;30.48;;;20.58;;
55314;SDS011;41619;42.816;23.226;2023-04-08T07:34:57;37.80;;;21.92;;
55314;SDS011;41619;42.816;23.226;2023-04-08T07:37:23;33.92;;;20.98;;
55314;SDS011;41619;42.816;23.226;2023-04-08T07:39:48;35.25;;;20.60;;
55314;SDS011;41619;42.816;23.226;2023-04-08T07:42:14;40.53;;;21.40;;
55314;SDS011;41619;42.816;23.226;2023-04-08T07:44:39;32.65;;;22.30;;
55314;SDS011;41619;42.816;23.226;2023-04-08T07:47:05;39.33;;;23.63;;
55314;SDS011;41619;42.816;23.226;2023-04-08T07:49:30;42.17;;;26.52;;
55314;SDS011;41619;42.816;23.226;2023-04-08T07:51:56;32.42;;;21.63;;
55314;SDS011;41619;42.816;23.226;2023-04-08T07:54:21;33.55;;;21.42;;
55314;SDS011;41619;42.816;23.226;2023-04-08T07:56:47;39.38;;;22.83;;
55314;SDS011;41619;42.816;23.226;2023-04-08T07:59:12;42.33;;;24.63;;
55314;SDS011;41619;42.816;23.226;2023-04-08T08:01:37;36.20;;;23.25;;
55314;SDS011;41619;42.816;23.226;2023-04-08T08:04:03;34.45;;;20.05;;
55314;SDS011;41619;42.816;23.226;2023-04-08T08:06:28;31.23;;;21.33;;
55314;SDS011;41619;42.816;23.226;2023-04-08T08:08:56;29.02;;;18.42;;
55314;SDS011;41619;42.816;23.226;2023-04-08T08:11:21;23.95;;;17.38;;
55314;SDS011;41619;42.816;23.226;2023-04-08T08:13:47;34.72;;;21.25;;
55314;SDS011;41619;42.816;23.226;2023-04-08T08:16:12;31.70;;;20.38;;
55314;SDS011;41619;42.816;23.226;2023-04-08T08:18:38;32.33;;;19.83;;
55314;SDS011;41619;42.816;23.226;2023-04-08T08:21:04;27.58;;;18.40;;
55314;SDS011;41619;42.816;23.226;2023-04-08T08:23:30;28.60;;;19.02;;
55314;SDS011;41619;42.816;23.226;2023-04-08T08:26:02;31.48;;;18.48;;
55314;SDS011;41619;42.816;23.226;2023-04-08T08:28:35;29.50;;;18.90;;
55314;SDS011;41619;42.816;23.226;2023-04-08T08:31:02;31.00;;;18.95;;
55314;SDS011;41619;42.816;23.226;2023-04-08T08:33:27;34.88;;;19.42;;
55314;SDS011;41619;42.816;23.226;2023-04-08T08:35:53;30.90;;;19.63;;
55314;SDS011;41619;42.816;23.226;2023-04-08T08:38:19;26.58;;;18.60;;
55314;SDS011;41619;42.816;23.226;2023-04-08T08:40:44;30.92;;;20.55;;
55314;SDS011;41619;42.816;23.226;2023-04-08T08:43:10;31.92;;;19.25;;
55314;SDS011;41619;42.816;23.226;2023-04-08T08:45:39;28.73;;;19.67;;
55314;SDS011;41619;42.816;23.226;2023-04-08T08:48:05;31.08;;;19.25;;
55314;SDS011;41619;42.816;23.226;2023-04-08T08:50:33;27.67;;;19.65;;
55314;SDS011;41619;42.816;23.226;2023-04-08T08:52:59;28.85;;;19.70;;
55314;SDS011;41619;42.816;23.226;2023-04-08T08:55:25;35.22;;;19.42;;
55314;SDS011;41619;42.816;23.226;2023-04-08T08:57:51;30.98;;;18.33;;
55314;SDS011;41619;42.816;23.226;2023-04-08T09:00:16;28.45;;;17.98;;
55314;SDS011;41619;42.816;23.226;2023-04-08T09:02:42;34.58;;;17.88;;
55314;SDS011;41619;42.816;23.226;2023-04-08T09:05:08;25.13;;;17.38;;
55314;SDS011;41619;42.816;23.226;2023-04-08T09:07:37;26.33;;;18.42;;
55314;SDS011;41619;42.816;23.226;2023-04-08T09:10:06;30.80;;;18.80;;
55314;SDS011;41619;42.816;23.226;2023-04-08T09:12:32;26.92;;;17.80;;
55314;SDS011;41619;42.816;23.226;2023-04-08T09:15:07;27.85;;;17.02;;
55314;SDS011;41619;42.816;23.226;2023-04-08T09:17:35;29.02;;;20.40;;
55314;SDS011;41619;42.816;23.226;2023-04-08T09:20:05;29.75;;;19.77;;
55314;SDS011;41619;42.816;23.226;2023-04-08T09:25:21;28.05;;;18.05;;
55314;SDS011;41619;42.816;23.226;2023-04-08T09:27:54;26.17;;;18.42;;
55314;SDS011;41619;42.816;23.226;2023-04-08T09:30:23;31.13;;;19.48;;
55314;SDS011;41619;42.816;23.226;2023-04-08T09:32:50;58.25;;;32.85;;
55314;SDS011;41619;42.816;23.226;2023-04-08T09:35:18;31.20;;;21.42;;
55314;SDS011;41619;42.816;23.226;2023-04-08T09:37:44;34.97;;;20.95;;
55314;SDS011;41619;42.816;23.226;2023-04-08T09:40:10;32.80;;;22.10;;
55314;SDS011;41619;42.816;23.226;2023-04-08T09:42:38;33.75;;;20.88;;
55314;SDS011;41619;42.816;23.226;2023-04-08T09:45:07;33.55;;;22.73;;
55314;SDS011;41619;42.816;23.226;2023-04-08T09:47:38;32.05;;;20.50;;
55314;SDS011;41619;42.816;23.226;2023-04-08T09:50:16;29.52;;;20.67;;
55314;SDS011;41619;42.816;23.226;2023-04-08T09:52:44;27.48;;;20.42;;
55314;SDS011;41619;42.816;23.226;2023-04-08T09:55:13;35.15;;;19.92;;
55314;SDS011;41619;42.816;23.226;2023-04-08T09:57:43;34.90;;;21.70;;
55314;SDS011;41619;42.816;23.226;2023-04-08T10:00:39;39.85;;;23.23;;
55314;SDS011;41619;42.816;23.226;2023-04-08T10:03:48;35.60;;;21.52;;
55314;SDS011;41619;42.816;23.226;2023-04-08T10:06:12;31.40;;;20.67;;
55314;SDS011;41619;42.816;23.226;2023-04-08T10:08:39;29.80;;;18.95;;
55314;SDS011;41619;42.816;23.226;2023-04-08T10:11:05;32.97;;;19.13;;
55314;SDS011;41619;42.816;23.226;2023-04-08T10:13:32;28.50;;;19.00;;
55314;SDS011;41619;42.816;23.226;2023-04-08T10:18:43;23.80;;;16.23;;
55314;SDS011;41619;42.816;23.226;2023-04-08T10:24:01;29.27;;;15.75;;
55314;SDS011;41619;42.816;23.226;2023-04-08T10:31:46;25.92;;;14.43;;
55314;SDS011;41619;42.816;23.226;2023-04-08T10:34:17;21.52;;;14.93;;
55314;SDS011;41619;42.816;23.226;2023-04-08T10:36:51;27.35;;;15.40;;
55314;SDS011;41619;42.816;23.226;2023-04-08T10:39:19;25.75;;;14.20;;
55314;SDS011;41619;42.816;23.226;2023-04-08T10:41:45;22.70;;;16.23;;
55314;SDS011;41619;42.816;23.226;2023-04-08T10:46:41;22.38;;;13.90;;
55314;SDS011;41619;42.816;23.226;2023-04-08T10:49:07;23.35;;;14.60;;
55314;SDS011;41619;42.816;23.226;2023-04-08T10:51:33;24.38;;;15.00;;
55314;SDS011;41619;42.816;23.226;2023-04-08T10:54:06;23.02;;;15.73;;
55314;SDS011;41619;42.816;23.226;2023-04-08T10:56:36;29.55;;;17.25;;
55314;SDS011;41619;42.816;23.226;2023-04-08T10:59:09;29.50;;;18.73;;
55314;SDS011;41619;42.816;23.226;2023-04-08T11:01:38;30.10;;;17.77;;
55314;SDS011;41619;42.816;23.226;2023-04-08T11:04:14;30.50;;;19.23;;
55314;SDS011;41619;42.816;23.226;2023-04-08T11:06:47;30.10;;;18.73;;
55314;SDS011;41619;42.816;23.226;2023-04-08T11:09:13;36.65;;;22.27;;
55314;SDS011;41619;42.816;23.226;2023-04-08T11:11:40;24.23;;;12.48;;
55314;SDS011;41619;42.816;23.226;2023-04-08T11:14:07;17.20;;;11.25;;
55314;SDS011;41619;42.816;23.226;2023-04-08T11:16:33;21.98;;;13.82;;
55314;SDS011;41619;42.816;23.226;2023-04-08T11:19:00;23.98;;;14.82;;
55314;SDS011;41619;42.816;23.226;2023-04-08T11:21:27;17.02;;;12.07;;
55314;SDS011;41619;42.816;23.226;2023-04-08T11:23:53;17.95;;;12.75;;
55314;SDS011;41619;42.816;23.226;2023-04-08T11:26:18;21.20;;;13.30;;
55314;SDS011;41619;42.816;23.226;2023-04-08T11:28:45;20.77;;;14.07;;
55314;SDS011;41619;42.816;23.226;2023-04-08T11:31:13;21.33;;;12.53;;
55314;SDS011;41619;42.816;23.226;2023-04-08T11:33:48;19.00;;;13.40;;
55314;SDS011;41619;42.816;23.226;2023-04-08T11:36:16;25.17;;;14.15;;
55314;SDS011;41619;42.816;23.226;2023-04-08T11:38:43;19.23;;;11.65;;
55314;SDS011;41619;42.816;23.226;2023-04-08T11:41:08;20.70;;;11.85;;
55314;SDS011;41619;42.816;23.226;2023-04-08T11:43:36;18.35;;;11.43;;
55314;SDS011;41619;42.816;23.226;2023-04-08T11:46:10;15.48;;;11.25;;
55314;SDS011;41619;42.816;23.226;2023-04-08T11:48:36;15.90;;;8.93;;
55314;SDS011;41619;42.816;23.226;2023-04-08T11:51:05;16.52;;;11.65;;
55314;SDS011;41619;42.816;23.226;2023-04-08T11:53:36;17.48;;;11.20;;
55314;SDS011;41619;42.816;23.226;2023-04-08T11:58:47;18.48;;;10.98;;
55314;SDS011;41619;42.816;23.226;2023-04-08T12:01:13;16.80;;;11.15;;
55314;SDS011;41619;42.816;23.226;2023-04-08T12:03:38;13.25;;;10.40;;
55314;SDS011;41619;42.816;23.226;2023-04-08T12:06:17;17.73;;;9.45;;
55314;SDS011;41619;42.816;23.226;2023-04-08T12:08:42;14.50;;;10.73;;
55314;SDS011;41619;42.816;23.226;2023-04-08T12:11:08;19.48;;;10.02;;
55314;SDS011;41619;42.816;23.226;2023-04-08T12:13:34;14.15;;;10.35;;
55314;SDS011;41619;42.816;23.226;2023-04-08T12:15:59;17.92;;;11.35;;
55314;SDS011;41619;42.816;23.226;2023-04-08T12:18:24;15.57;;;10.88;;
55314;SDS011;41619;42.816;23.226;2023-04-08T12:20:50;18.90;;;12.35;;
55314;SDS011;41619;42.816;23.226;2023-04-08T12:23:15;21.10;;;13.52;;
55314;SDS011;41619;42.816;23.226;2023-04-08T12:25:41;18.38;;;11.73;;
55314;SDS011;41619;42.816;23.226;2023-04-08T12:28:06;21.23;;;12.13;;
55314;SDS011;41619;42.816;23.226;2023-04-08T12:30:33;28.13;;;12.45;;
55314;SDS011;41619;42.816;23.226;2023-04-08T12:33:00;19.98;;;13.65;;
55314;SDS011;41619;42.816;23.226;2023-04-08T12:35:26;24.23;;;15.15;;
55314;SDS011;41619;42.816;23.226;2023-04-08T12:37:51;16.08;;;12.35;;
55314;SDS011;41619;42.816;23.226;2023-04-08T12:40:17;18.63;;;13.40;;
55314;SDS011;41619;42.816;23.226;2023-04-08T12:42:43;30.75;;;19.85;;
55314;SDS011;41619;42.816;23.226;2023-04-08T12:45:08;28.60;;;17.33;;
55314;SDS011;41619;42.816;23.226;2023-04-08T12:47:34;22.05;;;16.27;;
55314;SDS011;41619;42.816;23.226;2023-04-08T12:49:59;22.15;;;14.93;;
55314;SDS011;41619;42.816;23.226;2023-04-08T12:52:24;26.70;;;16.02;;
55314;SDS011;41619;42.816;23.226;2023-04-08T12:54:50;21.35;;;15.05;;
55314;SDS011;41619;42.816;23.226;2023-04-08T12:57:15;27.45;;;16.15;;
55314;SDS011;41619;42.816;23.226;2023-04-08T12:59:41;37.40;;;22.20;;
55314;SDS011;41619;42.816;23.226;2023-04-08T13:02:06;21.73;;;14.90;;
55314;SDS011;41619;42.816;23.226;2023-04-08T13:04:32;20.58;;;15.10;;
55314;SDS011;41619;42.816;23.226;2023-04-08T13:06:57;23.35;;;15.20;;
55314;SDS011;41619;42.816;23.226;2023-04-08T13:09:23;20.52;;;14.70;;
55314;SDS011;41619;42.816;23.226;2023-04-08T13:11:48;18.80;;;14.65;;
55314;SDS011;41619;42.816;23.226;2023-04-08T13:14:14;25.58;;;18.92;;
55314;SDS011;41619;42.816;23.226;2023-04-08T13:16:40;31.77;;;21.15;;
55314;SDS011;41619;42.816;23.226;2023-04-08T13:19:05;25.65;;;17.33;;
55314;SDS011;41619;42.816;23.226;2023-04-08T13:21:31;24.05;;;15.45;;
55314;SDS011;41619;42.816;23.226;2023-04-08T13:23:56;26.42;;;19.02;;
55314;SDS011;41619;42.816;23.226;2023-04-08T13:26:22;23.05;;;16.50;;
55314;SDS011;41619;42.816;23.226;2023-04-08T13:28:49;19.25;;;13.50;;
55314;SDS011;41619;42.816;23.226;2023-04-08T13:31:16;21.40;;;14.63;;
55314;SDS011;41619;42.816;23.226;2023-04-08T13:33:42;20.92;;;14.77;;
55314;SDS011;41619;42.816;23.226;2023-04-08T13:36:11;21.35;;;13.00;;
55314;SDS011;41619;42.816;23.226;2023-04-08T13:38:37;20.25;;;13.75;;
55314;SDS011;41619;42.816;23.226;2023-04-08T13:41:03;21.35;;;14.32;;
55314;SDS011;41619;42.816;23.226;2023-04-08T13:43:28;20.45;;;14.15;;
55314;SDS011;41619;42.816;23.226;2023-04-08T13:45:54;22.73;;;15.38;;
55314;SDS011;41619;42.816;23.226;2023-04-08T13:48:19;24.65;;;15.23;;
55314;SDS011;41619;42.816;23.226;2023-04-08T13:50:45;18.45;;;13.57;;
55314;SDS011;41619;42.816;23.226;2023-04-08T13:53:11;20.60;;;14.27;;
55314;SDS011;41619;42.816;23.226;2023-04-08T13:55:36;17.70;;;12.82;;
55314;SDS011;41619;42.816;23.226;2023-04-08T13:58:01;15.55;;;11.68;;
55314;SDS011;41619;42.816;23.226;2023-04-08T14:00:27;15.65;;;10.40;;
55314;SDS011;41619;42.816;23.226;2023-04-08T14:02:52;16.60;;;12.07;;
55314;SDS011;41619;42.816;23.226;2023-04-08T14:05:18;18.40;;;12.90;;
55314;SDS011;41619;42.816;23.226;2023-04-08T14:07:43;19.60;;;13.93;;
55314;SDS011;41619;42.816;23.226;2023-04-08T14:10:09;20.17;;;14.40;;
55314;SDS011;41619;42.816;23.226;2023-04-08T14:12:34;17.02;;;11.88;;
55314;SDS011;41619;42.816;23.226;2023-04-08T14:15:00;15.13;;;11.32;;
55314;SDS011;41619;42.816;23.226;2023-04-08T14:17:26;11.68;;;9.05;;
55314;SDS011;41619;42.816;23.226;2023-04-08T14:19:52;15.02;;;9.48;;
55314;SDS011;41619;42.816;23.226;2023-04-08T14:22:17;12.00;;;8.60;;
55314;SDS011;41619;42.816;23.226;2023-04-08T14:24:43;15.80;;;9.00;;